Time;durP1;ratioP1;P1;durP2;ratioP2;P2;SDS_P1;SDS_P2;PMS_P1;PMS_P2;Temp;Humidity;BMP_temperature;BMP_pressure;BME280_temperature;BME280_humidity;BME280_pressure;Samples;Min_cycle;Max_cycle;Signal;HPM_P1;HPM_P2
2022/02/15 00:01:09;;;;;;;39.10;18.53;;;;;;;3.06;78.97;99780.80;3529955;82;99201;-84
2022/02/15 00:06:10;;;;;;;34.97;18.33;;;;;;;3.02;79.22;99777.21;3538193;82;99169;-82
2022/02/15 00:11:11;;;;;;;35.53;18.70;;;;;;;2.99;79.14;99769.73;3535860;82;98379;-85
2022/02/15 00:16:12;;;;;;;36.07;18.70;;;;;;;2.94;79.23;99769.16;3548225;82;98667;-84
2022/02/15 00:21:13;;;;;;;38.53;19.53;;;;;;;2.88;79.08;99761.82;3546838;82;98521;-85
2022/02/15 00:26:14;;;;;;;36.10;19.63;;;;;;;2.81;79.06;99767.05;3534771;82;99079;-84
2022/02/15 00:31:15;;;;;;;41.30;19.03;;;;;;;2.77;79.33;99769.41;3532454;82;98591;-84
2022/02/15 00:36:15;;;;;;;36.57;18.20;;;;;;;2.70;79.38;99773.27;3528941;82;99585;-83
2022/02/15 00:41:16;;;;;;;36.83;19.30;;;;;;;2.64;79.53;99765.13;3529816;82;98314;-84
2022/02/15 00:46:17;;;;;;;38.03;19.60;;;;;;;2.57;79.67;99758.89;3541617;82;98469;-84
2022/02/15 00:51:18;;;;;;;38.17;19.60;;;;;;;2.51;79.95;99760.25;3533085;81;98780;-84
2022/02/15 00:56:19;;;;;;;38.77;19.10;;;;;;;2.46;80.07;99769.98;3538776;82;99033;-84
2022/02/15 01:01:20;;;;;;;37.77;19.10;;;;;;;2.42;80.65;99775.08;3538045;82;99041;-85
2022/02/15 01:06:21;;;;;;;37.93;17.83;;;;;;;2.42;80.65;99775.08;3510043;82;99133;-85
2022/02/15 01:11:22;;;;;;;35.90;17.80;;;;;;;2.40;80.69;99771.34;3547285;82;99020;-84
2022/02/15 01:16:23;;;;;;;36.68;19.10;;;;;;;2.39;80.86;99771.13;3537769;82;34773;-85
2022/02/15 01:21:23;;;;;;;38.70;18.03;;;;;;;2.42;81.02;99765.58;3545375;82;98524;-85
2022/02/15 01:26:24;;;;;;;37.57;19.37;;;;;;;2.44;80.97;99755.16;3512088;82;98961;-83
2022/02/15 01:31:25;;;;;;;38.33;20.03;;;;;;;2.47;81.17;99756.63;3539964;82;99080;-84
2022/02/15 01:36:26;;;;;;;35.80;19.40;;;;;;;2.51;81.17;99754.83;3537544;82;99195;-84
2022/02/15 01:41:27;;;;;;;34.05;18.12;;;;;;;2.56;81.03;99757.31;3525687;82;99051;-84
2022/02/15 01:46:28;;;;;;;38.23;20.50;;;;;;;2.61;81.04;99760.36;3544449;82;32783;-85
2022/02/15 01:51:28;;;;;;;38.30;19.00;;;;;;;2.65;80.84;99751.21;3559461;82;98424;-85
2022/02/15 01:56:30;;;;;;;41.07;20.20;;;;;;;2.70;80.69;99756.97;3551462;82;99081;-84
2022/02/15 02:01:31;;;;;;;37.97;19.83;;;;;;;2.75;80.88;99764.89;3505343;82;98999;-84
2022/02/15 02:06:32;;;;;;;41.00;19.67;;;;;;;2.79;81.04;99766.58;3559427;82;98941;-84
2022/02/15 02:11:33;;;;;;;37.87;19.33;;;;;;;2.84;80.82;99753.34;3547421;82;99091;-85
2022/02/15 02:16:35;;;;;;;39.35;20.82;;;;;;;2.87;80.74;99741.22;3556994;82;32298;-85
2022/02/15 02:21:38;;;;;;;40.83;20.75;;;;;;;2.91;80.77;99744.84;3544737;82;98687;-84
2022/02/15 02:26:39;;;;;;;37.53;19.27;;;;;;;2.93;80.73;99742.56;3546875;82;99128;-84
2022/02/15 02:31:44;;;;;;;41.47;20.20;;;;;;;2.95;80.61;99740.28;3542827;82;98995;-85
2022/02/15 02:36:48;;;;;;;34.98;19.27;;;;;;;2.95;80.56;99743.00;3529913;82;99010;-84
2022/02/15 02:41:49;;;;;;;42.93;20.08;;;;;;;2.95;80.82;99738.16;3532520;82;99141;-85
2022/02/15 02:46:50;;;;;;;43.13;19.90;;;;;;;2.95;80.95;99736.80;3551683;82;98351;-84
2022/02/15 02:51:50;;;;;;;42.53;20.60;;;;;;;2.96;81.01;99735.66;3566400;82;98799;-85
2022/02/15 02:56:52;;;;;;;42.10;20.37;;;;;;;2.94;80.95;99742.78;3533410;82;98845;-85
2022/02/15 03:01:53;;;;;;;35.17;19.07;;;;;;;2.96;81.14;99742.45;3544942;82;97925;-84
2022/02/15 03:06:53;;;;;;;39.35;19.60;;;;;;;2.99;81.29;99747.98;3543594;82;98942;-83
2022/02/15 03:11:55;;;;;;;38.70;19.43;;;;;;;3.00;81.41;99745.48;3559503;81;98982;-85
2022/02/15 03:16:56;;;;;;;37.40;19.43;;;;;;;3.01;81.60;99751.14;3545152;82;98440;-84
2022/02/15 03:21:58;;;;;;;35.47;18.33;;;;;;;3.02;81.60;99756.83;3541757;82;98736;-84
2022/02/15 03:26:58;;;;;;;36.23;19.37;;;;;;;3.02;81.73;99751.95;3538910;82;98842;-84
2022/02/15 03:31:59;;;;;;;33.60;18.70;;;;;;;3.03;81.76;99752.16;3537744;82;98932;-84
2022/02/15 03:37:00;;;;;;;35.03;19.37;;;;;;;3.05;81.79;99756.68;3540267;82;98777;-84
2022/02/15 03:47:21;;;;;;;39.48;19.60;;;;;;;3.11;81.88;99764.27;3555271;82;98775;-84
2022/02/15 03:52:22;;;;;;;33.63;17.77;;;;;;;3.15;81.64;99771.96;3558868;82;98690;-84
2022/02/15 03:57:22;;;;;;;33.70;18.27;;;;;;;3.19;81.49;99776.14;3538332;82;98561;-85
2022/02/15 04:02:23;;;;;;;34.53;16.67;;;;;;;3.24;81.32;99774.55;3551766;82;98628;-85
2022/02/15 04:07:24;;;;;;;32.50;17.27;;;;;;;3.29;81.47;99775.08;3532377;82;98755;-84
2022/02/15 04:12:25;;;;;;;34.37;16.53;;;;;;;3.34;81.39;99780.28;3512282;82;98684;-84
2022/02/15 04:17:26;;;;;;;35.37;16.13;;;;;;;3.38;81.25;99787.98;3545252;82;98811;-85
2022/02/15 04:22:26;;;;;;;36.17;18.40;;;;;;;3.43;81.18;99797.27;3551741;82;98821;-84
2022/02/15 04:27:29;;;;;;;36.67;17.80;;;;;;;3.48;81.32;99794.30;3534910;82;98888;-83
2022/02/15 04:32:30;;;;;;;32.20;17.57;;;;;;;3.51;81.45;99792.27;3551203;82;99096;-86
2022/02/15 04:37:30;;;;;;;36.00;18.27;;;;;;;3.53;81.83;99788.63;3516972;82;99003;-86
2022/02/15 04:42:31;;;;;;;37.60;19.23;;;;;;;3.55;82.64;99786.92;3555078;82;98944;-85
2022/02/15 04:47:32;;;;;;;35.27;17.37;;;;;;;3.54;83.58;99788.03;3546512;82;98969;-85
2022/02/15 04:52:33;;;;;;;34.40;20.60;;;;;;;3.50;84.19;99792.02;3530265;82;31432;-85
2022/02/15 04:57:34;;;;;;;34.10;18.77;;;;;;;3.46;84.81;99795.23;3531679;82;98784;-85
2022/02/15 05:02:35;;;;;;;36.90;18.87;;;;;;;3.45;85.42;99797.70;3555742;82;98878;-84
2022/02/15 05:07:36;;;;;;;42.87;21.37;;;;;;;3.43;86.11;99796.45;3531442;82;99029;-85
2022/02/15 05:12:38;;;;;;;35.55;20.20;;;;;;;3.40;86.61;99806.68;3555019;82;98649;-85
2022/02/15 05:17:44;;;;;;;38.38;20.97;;;;;;;3.37;87.05;99806.80;3549747;82;98931;-86
2022/02/15 05:22:45;;;;;;;39.83;20.37;;;;;;;3.35;87.79;99805.00;3546791;82;25706;-85
2022/02/15 05:27:46;;;;;;;45.03;21.42;;;;;;;3.33;88.29;99803.17;3552423;82;98997;-85
2022/02/15 05:32:47;;;;;;;36.67;19.27;;;;;;;3.32;88.58;99800.80;3555688;82;99113;-85
2022/02/15 05:37:48;;;;;;;32.93;16.87;;;;;;;3.32;89.13;99794.00;3541491;82;98700;-84
2022/02/15 05:42:49;;;;;;;36.13;18.50;;;;;;;3.33;89.26;99790.94;3530881;82;99014;-85
2022/02/15 05:47:50;;;;;;;35.23;18.37;;;;;;;3.35;89.62;99790.60;3554678;82;98837;-85
2022/02/15 05:52:52;;;;;;;32.77;18.60;;;;;;;3.37;89.98;99798.64;3522574;82;34627;-86
2022/02/15 05:57:53;;;;;;;39.18;19.37;;;;;;;3.38;90.05;99807.61;3544749;82;99035;-86
2022/02/15 06:02:53;;;;;;;38.73;19.60;;;;;;;3.40;90.40;99817.00;3541917;82;98573;-85
2022/02/15 06:07:54;;;;;;;34.60;18.43;;;;;;;3.41;90.46;99825.38;3549862;82;98984;-85
2022/02/15 06:12:55;;;;;;;38.30;20.50;;;;;;;3.43;90.60;99816.86;3534934;81;98692;-86
2022/02/15 06:17:56;;;;;;;36.87;17.30;;;;;;;3.46;91.09;99833.86;3534648;82;98979;-86
2022/02/15 06:22:57;;;;;;;36.60;19.90;;;;;;;3.48;90.90;99843.27;3549554;82;35262;-85
2022/02/15 06:27:58;;;;;;;37.55;19.60;;;;;;;3.51;91.13;99841.23;3557540;82;98847;-86
2022/02/15 06:32:59;;;;;;;37.53;19.30;;;;;;;3.54;91.32;99847.87;3556738;81;98713;-86
2022/02/15 06:38:00;;;;;;;36.30;18.15;;;;;;;3.58;91.30;99854.22;3537721;82;98879;-86
2022/02/15 06:43:01;;;;;;;42.23;20.30;;;;;;;3.63;91.56;99868.95;3543596;82;98936;-85
2022/02/15 06:48:02;;;;;;;39.40;19.05;;;;;;;3.66;91.42;99875.85;3533671;82;98982;-86
2022/02/15 06:53:03;;;;;;;37.67;19.80;;;;;;;3.71;91.28;99880.28;3539249;82;32273;-85
2022/02/15 06:58:04;;;;;;;41.77;21.63;;;;;;;3.75;91.30;99880.60;3528351;82;98752;-86
2022/02/15 07:03:05;;;;;;;39.10;21.83;;;;;;;3.79;91.26;99888.86;3530097;81;98804;-87
2022/02/15 07:08:06;;;;;;;39.20;19.80;;;;;;;3.83;91.24;99895.98;3528648;82;98986;-85
2022/02/15 07:13:07;;;;;;;33.17;19.10;;;;;;;3.87;91.08;99900.97;3535230;82;98955;-85
2022/02/15 07:18:08;;;;;;;39.40;20.27;;;;;;;3.91;90.84;99897.79;3528694;82;99100;-85
2022/02/15 07:23:10;;;;;;;35.80;19.45;;;;;;;3.95;90.71;99892.44;3537831;82;32251;-86
2022/02/15 07:28:11;;;;;;;40.43;21.30;;;;;;;3.98;90.56;99904.79;3527053;82;98834;-84
2022/02/15 07:33:12;;;;;;;39.00;20.90;;;;;;;4.01;90.54;99914.20;3536130;82;98833;-87
2022/02/15 07:38:13;;;;;;;39.77;20.87;;;;;;;4.04;90.51;99910.20;3534305;82;98982;-91
2022/02/15 07:43:14;;;;;;;45.50;23.37;;;;;;;4.08;90.46;99908.39;3541472;82;98141;-90
2022/02/15 07:48:15;;;;;;;42.70;21.17;;;;;;;4.11;90.35;99917.23;3542173;82;99009;-92
2022/02/15 07:53:16;;;;;;;43.73;22.17;;;;;;;4.15;90.34;99913.25;3541410;82;25988;-91
2022/02/15 07:58:17;;;;;;;43.17;21.77;;;;;;;4.19;90.17;99916.28;3528559;82;99038;-88
2022/02/15 08:03:19;;;;;;;38.30;21.17;;;;;;;4.25;90.09;99918.98;3528304;82;99062;-93
2022/02/15 08:08:20;;;;;;;42.53;22.43;;;;;;;4.29;90.21;99910.34;3520036;82;99048;-92
2022/02/15 08:13:21;;;;;;;44.30;22.83;;;;;;;4.36;90.06;99918.70;3527608;82;99221;-91
2022/02/15 08:18:22;;;;;;;40.67;20.70;;;;;;;4.45;90.10;99921.27;3522686;82;98905;-91
2022/02/15 08:23:23;;;;;;;45.17;22.20;;;;;;;4.76;89.93;99921.33;3529236;82;25983;-92
2022/02/15 08:28:24;;;;;;;45.00;23.17;;;;;;;4.76;89.93;99921.33;3521788;82;98615;-92
2022/02/15 08:33:27;;;;;;;39.33;20.20;;;;;;;4.99;90.01;99923.66;3527036;82;98819;-89
2022/02/15 08:38:31;;;;;;;37.08;18.30;;;;;;;5.22;89.49;99930.88;3518459;82;99280;-90
2022/02/15 08:43:32;;;;;;;31.60;16.70;;;;;;;5.47;89.25;99941.02;3528941;82;98429;-92
2022/02/15 08:48:34;;;;;;;32.55;17.15;;;;;;;5.71;89.02;99944.88;3520147;82;98891;-92
2022/02/15 08:53:35;;;;;;;30.35;16.75;;;;;;;5.91;88.90;99942.44;3529314;82;98902;-93
2022/02/15 08:58:35;;;;;;;29.63;15.87;;;;;;;6.11;88.61;99947.55;3521935;82;98958;-92
2022/02/15 09:03:37;;;;;;;29.20;14.67;;;;;;;6.29;88.18;99946.55;3532256;82;98907;-90
2022/02/15 09:08:37;;;;;;;32.80;15.10;;;;;;;6.47;88.08;99940.86;3515405;82;99321;-91
2022/02/15 09:13:38;;;;;;;27.93;14.10;;;;;;;6.74;88.08;99959.75;3526444;82;99048;-89
2022/02/15 09:18:39;;;;;;;27.53;14.07;;;;;;;7.10;87.75;99951.01;3521010;82;99061;-90
2022/02/15 09:23:40;;;;;;;29.00;14.67;;;;;;;7.35;86.57;99954.16;3529401;82;99490;-91
2022/02/15 09:28:44;;;;;;;24.83;13.50;;;;;;;7.55;86.06;99966.05;3522604;82;99050;-92
2022/02/15 09:33:51;;;;;;;22.87;13.40;;;;;;;7.75;85.97;99966.14;3529218;82;98830;-91
2022/02/15 09:38:49;;;;;;;25.43;13.30;;;;;;;7.95;85.62;99979.14;3521567;82;99147;-90
2022/02/15 09:43:50;;;;;;;24.83;14.27;;;;;;;8.26;85.23;99980.20;3527421;82;99030;-92
2022/02/15 09:48:53;;;;;;;24.35;12.75;;;;;;;8.59;84.41;99974.16;3520004;82;99021;-89
2022/02/15 09:53:55;;;;;;;23.90;12.85;;;;;;;8.78;84.09;99982.20;3530675;82;99249;-92
2022/02/15 09:58:56;;;;;;;24.77;13.35;;;;;;;9.00;83.97;99987.34;3522950;81;98748;-94
2022/02/15 10:04:00;;;;;;;19.97;11.37;;;;;;;9.17;83.26;99995.73;3527274;82;99055;-90
2022/02/15 10:09:03;;;;;;;18.57;10.80;;;;;;;9.36;82.92;99989.23;3518395;82;99426;-91
2022/02/15 10:14:06;;;;;;;21.87;10.68;;;;;;;9.62;83.09;99996.73;3527146;82;99425;-90
2022/02/15 10:19:06;;;;;;;16.55;8.98;;;;;;;10.03;81.31;99989.95;3519477;82;99407;-92
2022/02/15 10:24:14;;;;;;;18.47;10.13;;;;;;;10.27;81.53;99983.05;3531147;82;99303;-91
2022/02/15 10:29:23;;;;;;;23.75;10.45;;;;;;;10.51;79.81;99980.41;3537718;82;98956;-92
2022/02/15 10:34:25;;;;;;;18.30;10.28;;;;;;;10.78;79.96;99984.44;3548376;82;99022;-94
2022/02/15 10:39:38;;;;;;;20.75;10.45;;;;;;;10.90;77.36;99992.94;3527439;82;99256;-94
2022/02/15 10:44:53;;;;;;;23.22;10.63;;;;;;;10.99;77.96;99980.37;3545527;81;99390;-92
2022/02/15 10:50:01;;;;;;;19.30;9.73;;;;;;;11.11;76.40;99978.61;3527655;82;101667;-92
2022/02/15 10:55:04;;;;;;;20.65;9.60;;;;;;;11.24;76.74;99978.42;3533764;82;99493;-89
2022/02/15 11:00:10;;;;;;;18.80;10.00;;;;;;;11.32;75.40;99982.78;3533686;82;98885;-92
2022/02/15 11:05:13;;;;;;;17.60;8.95;;;;;;;11.36;74.54;99975.89;3502405;82;27392;-90
2022/02/15 11:10:30;;;;;;;20.32;9.35;;;;;;;11.37;75.26;99982.39;3515222;82;98867;-91
2022/02/15 11:15:38;;;;;;;16.73;9.10;;;;;;;11.41;75.11;99990.08;3527551;81;99278;-93
2022/02/15 11:20:53;;;;;;;17.32;8.15;;;;;;;11.36;73.87;100008.38;3525203;82;98853;-92
2022/02/15 11:26:13;;;;;;;17.25;8.85;;;;;;;11.37;74.23;99998.12;3533488;82;98825;-93
2022/02/15 11:31:28;;;;;;;17.75;8.63;;;;;;;11.46;74.04;99999.30;3523409;82;99152;-95
2022/02/15 11:36:31;;;;;;;19.10;7.97;;;;;;;11.45;73.55;99999.11;3535079;82;99255;-90
2022/02/15 11:41:45;;;;;;;18.75;9.23;;;;;;;11.43;73.91;99998.73;3525975;82;99480;-89
2022/02/15 11:46:47;;;;;;;16.62;8.30;;;;;;;11.41;73.69;99991.45;3527350;82;98825;-92
2022/02/15 11:51:51;;;;;;;20.60;8.83;;;;;;;11.36;72.31;99998.73;3540279;82;98660;-92
2022/02/15 11:56:54;;;;;;;15.98;7.87;;;;;;;11.27;73.07;100006.58;3526947;82;99165;-92
2022/02/15 12:02:01;;;;;;;17.87;7.85;;;;;;;11.22;73.34;100003.41;3539496;82;99250;-91
2022/02/15 12:07:04;;;;;;;16.50;8.33;;;;;;;11.15;73.34;100004.20;3529018;82;99308;-92
2022/02/15 12:12:17;;;;;;;20.82;8.68;;;;;;;11.11;73.18;99998.47;3541300;82;99626;-91
2022/02/15 12:17:24;;;;;;;17.85;7.90;;;;;;;11.15;73.28;100004.20;3526729;82;98658;-92
2022/02/15 12:22:29;;;;;;;16.93;9.23;;;;;;;11.14;73.03;100008.72;3535383;82;99120;-92
2022/02/15 12:27:30;;;;;;;15.20;7.08;;;;;;;11.09;73.71;100007.72;3527022;82;99296;-91
2022/02/15 12:32:32;;;;;;;17.70;7.37;;;;;;;11.14;73.68;100009.52;3532445;82;99292;-90
2022/02/15 12:37:33;;;;;;;13.75;6.42;;;;;;;11.23;73.13;100014.04;3499627;82;99337;-93
2022/02/15 12:42:35;;;;;;;17.27;6.00;;;;;;;11.29;72.36;100015.23;3537535;82;99506;-91
2022/02/15 12:47:40;;;;;;;14.80;6.47;;;;;;;11.39;72.98;100013.08;3498392;82;99352;-88
2022/02/15 12:52:42;;;;;;;16.50;4.95;;;;;;;11.52;71.89;100016.25;3530678;81;33087;-90
2022/02/15 12:57:46;;;;;;;12.80;5.10;;;;;;;11.58;71.34;100017.43;3534292;82;99290;-90
2022/02/15 13:02:50;;;;;;;9.65;4.00;;;;;;;11.51;69.63;100017.44;3534889;82;98933;-92
2022/02/15 13:07:51;;;;;;;13.18;4.67;;;;;;;11.46;70.09;100023.33;3516788;82;99228;-92
2022/02/15 13:13:09;;;;;;;10.57;3.73;;;;;;;11.55;71.16;100024.52;3539493;82;99332;-90
2022/02/15 13:18:10;;;;;;;12.95;5.08;;;;;;;11.67;68.72;100025.52;3504197;82;99516;-92
2022/02/15 13:23:14;;;;;;;16.13;5.50;;;;;;;11.67;69.77;100017.26;3534626;82;25652;-92
2022/02/15 13:28:18;;;;;;;11.63;5.08;;;;;;;11.58;69.69;100004.45;3526205;82;99248;-93
2022/02/15 13:33:18;;;;;;;13.18;4.62;;;;;;;11.68;69.26;100018.06;3505206;82;99290;-95
2022/02/15 13:38:19;;;;;;;5.87;3.40;;;;;;;11.73;69.05;100024.56;3521816;82;99362;-95
2022/02/15 13:43:28;;;;;;;12.63;4.23;;;;;;;11.72;69.49;100029.88;3503745;82;99158;-95
2022/02/15 13:48:29;;;;;;;11.78;4.35;;;;;;;11.75;69.17;100030.45;3530739;81;99224;-91
2022/02/15 13:53:30;;;;;;;11.07;3.83;;;;;;;11.61;68.18;100035.98;3537160;82;26595;-94
2022/02/15 13:58:31;;;;;;;11.47;4.17;;;;;;;11.47;68.19;100037.30;3552628;82;99138;-87
2022/02/15 14:03:32;;;;;;;12.80;4.13;;;;;;;11.37;68.41;100029.80;3547435;82;98894;-93
2022/02/15 14:08:34;;;;;;;14.03;3.83;;;;;;;11.31;68.78;100029.42;3540126;82;99071;-94
2022/02/15 14:13:35;;;;;;;12.17;3.53;;;;;;;11.24;68.16;100031.38;3538110;82;98973;-93
2022/02/15 14:18:37;;;;;;;13.10;3.40;;;;;;;11.14;68.85;100032.93;3535835;82;99191;-94
2022/02/15 14:23:38;;;;;;;11.17;4.30;;;;;;;11.01;69.34;100031.70;3551173;82;98263;-87
2022/02/15 14:28:41;;;;;;;10.53;4.13;;;;;;;10.94;69.54;100040.52;3530911;82;99073;-94
2022/02/15 14:33:45;;;;;;;12.98;4.75;;;;;;;10.86;70.02;100033.42;3536323;82;99246;-92
2022/02/15 14:38:44;;;;;;;9.40;4.17;;;;;;;10.82;70.68;100035.38;3530046;82;99357;-92
2022/02/15 14:43:46;;;;;;;14.83;4.53;;;;;;;10.81;71.08;100039.30;3536298;81;99324;-93
2022/02/15 14:48:47;;;;;;;12.98;4.70;;;;;;;10.74;71.30;100037.30;3533228;82;98880;-92
2022/02/15 14:53:48;;;;;;;16.37;4.90;;;;;;;10.68;71.31;100042.21;3533382;82;98245;-93
2022/02/15 14:58:50;;;;;;;11.67;5.80;;;;;;;10.63;71.65;100043.95;3533398;82;99171;-91
2022/02/15 15:03:51;;;;;;;20.03;11.77;;;;;;;10.60;71.96;100043.34;3546973;82;98824;-92
2022/02/15 15:08:55;;;;;;;17.47;7.63;;;;;;;10.59;71.76;100048.07;3534703;82;99202;-92
2022/02/15 15:13:56;;;;;;;13.45;5.33;;;;;;;10.54;71.91;100053.94;3539274;82;99338;-94
2022/02/15 15:18:57;;;;;;;14.40;4.97;;;;;;;10.49;71.62;100056.25;3531912;82;99385;-93
2022/02/15 15:23:58;;;;;;;14.00;5.20;;;;;;;10.42;72.05;100067.23;3531985;82;99473;-91
2022/02/15 15:28:59;;;;;;;15.73;4.27;;;;;;;10.36;72.02;100071.52;3501659;82;99032;-91
2022/02/15 15:34:02;;;;;;;13.53;5.03;;;;;;;10.16;71.86;100052.32;3526156;82;99404;-88
2022/02/15 15:39:04;;;;;;;13.75;5.22;;;;;;;10.22;72.24;100075.54;3524928;82;99534;-91
2022/02/15 15:44:09;;;;;;;13.25;4.92;;;;;;;10.17;72.29;100084.95;3529274;82;99337;-93
2022/02/15 15:49:10;;;;;;;17.98;6.87;;;;;;;10.14;72.57;100083.55;3521363;82;99098;-93
2022/02/15 15:54:11;;;;;;;24.85;9.40;;;;;;;10.07;72.67;100080.16;3538438;82;99484;-88
2022/02/15 15:59:12;;;;;;;27.10;14.03;;;;;;;10.03;72.93;100082.05;3526422;82;99007;-92
2022/02/15 16:04:14;;;;;;;19.90;9.67;;;;;;;9.96;73.16;100072.95;3506695;82;99594;-91
2022/02/15 16:09:14;;;;;;;29.37;10.73;;;;;;;9.91;73.42;100081.55;3532793;82;99139;-93
2022/02/15 16:14:15;;;;;;;26.93;12.20;;;;;;;9.86;73.69;100083.30;3541317;82;99098;-91
2022/02/15 16:19:18;;;;;;;26.73;12.97;;;;;;;9.80;74.00;100092.47;3530212;82;99134;-91
2022/02/15 16:24:19;;;;;;;27.60;12.83;;;;;;;9.78;74.29;100092.64;3540099;82;98307;-94
2022/02/15 16:29:20;;;;;;;28.00;12.67;;;;;;;9.69;74.53;100081.97;3535887;82;98695;-92
2022/02/15 16:34:23;;;;;;;25.33;12.73;;;;;;;9.62;74.99;100089.35;3533385;82;99161;-93
2022/02/15 16:39:24;;;;;;;31.25;13.83;;;;;;;9.58;75.22;100089.89;3531240;81;99198;-92
2022/02/15 16:44:26;;;;;;;36.17;14.67;;;;;;;9.54;75.39;100093.98;3557888;81;99405;-91
2022/02/15 16:49:27;;;;;;;28.17;13.07;;;;;;;9.51;75.63;100101.63;3538317;82;99067;-91
2022/02/15 16:54:28;;;;;;;40.43;19.87;;;;;;;9.45;75.89;100102.33;3543212;82;99336;-91
2022/02/15 16:59:29;;;;;;;40.07;18.70;;;;;;;9.42;76.06;100097.58;3540730;82;98603;-90
2022/02/15 17:04:30;;;;;;;39.73;20.07;;;;;;;9.36;76.37;100103.21;3539983;82;98853;-90
2022/02/15 17:09:33;;;;;;;41.90;20.37;;;;;;;9.31;76.45;100100.80;3528120;82;99189;-89
2022/02/15 17:14:34;;;;;;;45.98;21.82;;;;;;;9.25;76.82;100098.98;3540268;82;98895;-88
2022/02/15 17:19:35;;;;;;;44.53;21.10;;;;;;;9.20;77.07;100104.01;3540793;82;99315;-90
2022/02/15 17:24:36;;;;;;;47.40;23.47;;;;;;;9.13;77.31;100110.23;3531988;82;99144;-90
2022/02/15 17:29:38;;;;;;;42.05;20.75;;;;;;;9.05;77.68;100103.06;3532103;82;99235;-88
2022/02/15 17:34:45;;;;;;;43.70;21.17;;;;;;;9.00;77.96;100105.36;3532502;82;33149;-88
2022/02/15 17:39:42;;;;;;;49.08;22.58;;;;;;;8.95;78.31;100109.81;3525957;82;99318;-89
2022/02/15 17:44:46;;;;;;;47.20;23.27;;;;;;;8.90;78.55;100107.39;3505450;82;99253;-91
2022/02/15 17:49:51;;;;;;;48.95;23.12;;;;;;;8.87;78.77;100112.24;3525474;82;99264;-91
2022/02/15 17:54:53;;;;;;;47.98;24.00;;;;;;;8.84;79.03;100102.02;3531263;81;98957;-90
2022/02/15 17:59:55;;;;;;;47.63;24.13;;;;;;;8.81;79.17;100095.90;3547365;81;98935;-89
2022/02/15 18:04:57;;;;;;;52.48;26.40;;;;;;;8.77;79.36;100093.11;3560146;81;32338;-89
2022/02/15 18:09:58;;;;;;;47.60;25.37;;;;;;;8.75;79.50;100099.56;3552019;81;99017;-88
2022/02/15 18:14:58;;;;;;;53.80;28.23;;;;;;;8.69;79.71;100096.94;3499524;82;98260;-90
2022/02/15 18:19:59;;;;;;;63.03;30.23;;;;;;;8.64;79.93;100095.89;3482008;82;98937;-90
2022/02/15 18:25:00;;;;;;;58.40;30.12;;;;;;;8.58;79.84;100098.75;3470388;83;99329;-89
2022/02/15 18:30:01;;;;;;;53.00;23.10;;;;;;;8.54;80.03;100099.28;3458119;83;99256;-90
2022/02/15 18:35:03;;;;;;;53.30;27.17;;;;;;;8.50;80.10;100096.28;3442519;84;25680;-90
2022/02/15 18:40:07;;;;;;;51.47;23.63;;;;;;;8.45;80.02;100096.60;3503425;83;98817;-87
2022/02/15 18:45:11;;;;;;;52.48;22.50;;;;;;;8.39;80.08;100100.83;3483260;83;99313;-88
2022/02/15 18:50:12;;;;;;;44.85;21.57;;;;;;;8.30;80.15;100090.10;3499054;82;98863;-87
2022/02/15 18:55:14;;;;;;;42.60;22.23;;;;;;;8.22;80.43;100091.17;3516788;82;99282;-86
2022/02/15 19:00:16;;;;;;;46.05;24.12;;;;;;;8.15;80.50;100088.30;3493822;83;99269;-87
2022/02/15 19:05:17;;;;;;;45.55;23.80;;;;;;;8.07;80.68;100103.05;3490306;83;32786;-87
2022/02/15 19:10:18;;;;;;;43.20;22.10;;;;;;;7.95;80.82;100101.07;3474401;83;98791;-87
2022/02/15 19:15:19;;;;;;;51.33;24.23;;;;;;;7.81;81.15;100098.89;3530104;82;98652;-87
2022/02/15 19:20:22;;;;;;;58.47;27.77;;;;;;;7.71;81.44;100106.94;3507694;82;99018;-89
2022/02/15 19:25:25;;;;;;;50.33;25.15;;;;;;;7.60;81.92;100103.23;3491647;83;98935;-87
2022/02/15 19:30:28;;;;;;;50.15;27.05;;;;;;;7.51;82.15;100103.47;3479324;83;99274;-87
2022/02/15 19:35:31;;;;;;;48.17;25.08;;;;;;;7.41;82.49;100113.64;3490428;83;33090;-86
2022/02/15 19:40:33;;;;;;;57.30;25.92;;;;;;;7.33;82.83;100114.68;3527997;81;98791;-88
2022/02/15 19:45:37;;;;;;;47.00;23.02;;;;;;;7.27;83.47;100109.86;3558567;82;98984;-90
2022/02/15 19:50:38;;;;;;;50.43;24.15;;;;;;;7.18;83.86;100112.02;3555507;81;98763;-84
2022/02/15 19:55:40;;;;;;;47.53;24.03;;;;;;;7.15;84.22;100110.79;3555597;82;98849;-88
2022/02/15 20:00:41;;;;;;;46.50;23.57;;;;;;;7.13;84.45;100118.58;3531494;82;98878;-87
2022/02/15 20:05:42;;;;;;;49.07;25.17;;;;;;;7.12;84.67;100114.27;3484870;83;98800;-86
2022/02/15 20:10:43;;;;;;;48.90;25.70;;;;;;;7.12;84.88;100114.27;3487756;83;98530;-86
2022/02/15 20:15:43;;;;;;;43.30;23.47;;;;;;;7.11;85.00;100109.95;3509755;82;99031;-86
2022/02/15 20:20:44;;;;;;;43.93;22.73;;;;;;;7.10;85.17;100112.45;3463146;84;98907;-88
2022/02/15 20:25:47;;;;;;;39.40;21.67;;;;;;;7.12;85.49;100117.00;3477318;82;98913;-86
2022/02/15 20:30:52;;;;;;;40.07;21.20;;;;;;;7.11;85.57;100117.36;3469034;82;98758;-88
2022/02/15 20:35:53;;;;;;;40.20;22.32;;;;;;;7.13;85.81;100115.04;3465166;82;98895;-86
2022/02/15 20:40:59;;;;;;;39.60;22.40;;;;;;;7.13;85.78;100113.67;3461613;84;98747;-88
2022/02/15 20:46:01;;;;;;;40.05;21.30;;;;;;;7.13;85.76;100098.63;3469911;84;98700;-88
2022/02/15 20:51:04;;;;;;;44.25;22.75;;;;;;;7.12;85.86;100091.57;3509491;82;98757;-86
2022/02/15 20:56:07;;;;;;;42.43;22.15;;;;;;;7.14;86.35;100092.02;3542781;82;98851;-85
2022/02/15 21:01:08;;;;;;;42.00;24.30;;;;;;;7.11;86.41;100096.27;3516844;82;99267;-87
2022/02/15 21:06:09;;;;;;;46.53;24.30;;;;;;;7.10;86.76;100084.31;3448597;84;99331;-87
2022/02/15 21:11:11;;;;;;;42.30;24.03;;;;;;;7.07;87.46;100093.23;3498396;81;98635;-88
2022/02/15 21:16:12;;;;;;;43.93;25.17;;;;;;;7.02;88.08;100094.89;3451586;84;98830;-87
2022/02/15 21:21:15;;;;;;;48.33;25.70;;;;;;;6.97;88.25;100108.29;3477942;82;98971;-87
2022/02/15 21:26:17;;;;;;;46.98;26.90;;;;;;;6.94;88.48;100108.22;3440817;84;99050;-87
2022/02/15 21:31:19;;;;;;;43.08;24.25;;;;;;;6.88;88.73;100087.78;3478523;83;98910;-87
2022/02/15 21:36:20;;;;;;;49.40;27.37;;;;;;;6.85;88.89;100087.92;3525222;81;98922;-88
2022/02/15 21:41:21;;;;;;;50.90;27.10;;;;;;;6.81;88.83;100093.89;3520089;81;98738;-86
2022/02/15 21:46:23;;;;;;;49.97;25.60;;;;;;;6.79;88.75;100091.30;3523915;82;99062;-86
2022/02/15 21:51:24;;;;;;;47.27;26.37;;;;;;;6.77;88.80;100073.10;3537720;81;98852;-85
2022/02/15 21:56:27;;;;;;;46.80;25.87;;;;;;;6.72;88.93;100063.81;3488573;83;98066;-86
2022/02/15 22:01:27;;;;;;;50.20;25.88;;;;;;;6.66;89.04;100067.39;3484688;83;99009;-86
2022/02/15 22:06:28;;;;;;;43.20;25.53;;;;;;;6.61;88.95;100049.14;3482492;83;99241;-85
2022/02/15 22:11:29;;;;;;;44.50;24.77;;;;;;;6.55;89.00;100061.51;3494372;83;98874;-87
2022/02/15 22:16:31;;;;;;;53.37;25.70;;;;;;;6.51;89.15;100053.80;3491055;83;97805;-87
2022/02/15 22:21:32;;;;;;;49.48;26.02;;;;;;;6.50;89.09;100050.27;3498537;83;98844;-89
2022/02/15 22:26:33;;;;;;;45.57;24.10;;;;;;;6.50;89.20;100052.23;3558518;81;99209;-87
2022/02/15 22:31:36;;;;;;;46.20;23.87;;;;;;;6.46;89.26;100049.42;3493074;82;99240;-87
2022/02/15 22:36:36;;;;;;;48.63;26.13;;;;;;;6.44;89.41;100044.09;3500159;82;98815;-85
2022/02/15 22:41:37;;;;;;;42.13;23.83;;;;;;;6.43;89.39;100041.15;3526585;81;98844;-86
2022/02/15 22:46:38;;;;;;;46.53;25.60;;;;;;;6.38;89.36;100040.06;3537252;82;26613;-86
2022/02/15 22:51:39;;;;;;;44.77;25.90;;;;;;;6.36;89.63;100039.61;3534912;82;98990;-86
2022/02/15 22:56:40;;;;;;;47.33;24.63;;;;;;;6.33;89.79;100029.41;3527752;82;99358;-86
2022/02/15 23:01:43;;;;;;;45.37;25.57;;;;;;;6.31;89.87;100028.39;3533129;82;98721;-89
2022/02/15 23:22:42;;;;;;;44.90;24.47;;;;;;;6.10;90.26;100003.34;3542793;82;98527;-87
2022/02/15 23:27:43;;;;;;;43.57;24.17;;;;;;;6.03;90.37;100005.12;3544139;82;98917;-87
2022/02/15 23:32:45;;;;;;;44.17;25.77;;;;;;;5.97;90.52;99990.97;3543505;82;99240;-86
2022/02/15 23:37:46;;;;;;;44.15;25.43;;;;;;;5.92;90.83;99984.98;3546615;82;98643;-88